Beloit, KS (67420)

2:42 PM CDT on September 01, 2014 (GMT -0500)
Center Township | Change Station
CLOSE
Current Station
Personal Weather Station
Location: BELOIT, KS
Elevation: 1504 ft
Nearby Weather Stations

Elev 1504 ft 39.33 °N, 98.15 °W | Updated 44 seconds ago

Overcast
Overcast
79.5 °F
Feels Like 82 °F
N
4.0
Wind Variable Wind from NNW
Gusts 11.0 mph

Today
High -- | Low -- °F
--% Chance of Precip.
Yesterday
High -- | Low -- °F
Precip. -- in
7:00 AM 8:03 PM
Waxing Crescent, 43% visible
Pressure 29.88 in
Visibility 10.0 miles
Clouds Few 2700 ft
Overcast 4600 ft
Heat Index 82 °F
Dew Point 67 °F
Humidity 66%
Rainfall 0.02 in
Snow Depth Not available.
UV 3 out of 12
Pollen 8.60 out of 12
Air Quality Not available.
Flu Activity Not available.
METAR KCNK 011855Z AUTO 36005KT 10SM FEW027 OVC046 24/18 A2992 RMK AO2 SLP118 T02440183

More Conditions Fewer Conditions

Pressure 29.88 in
Visibility 10.0 miles
Clouds Few 2700 ft
Overcast 4600 ft
Heat Index 82 °F
Dew Point 67 °F
Humidity 66%
Rainfall 0.02 in
Snow Depth Not available.
UV 3 out of 12
Pollen 8.60 out of 12
Air Quality Not available.
Flu Activity Not available.
METAR KCNK 011855Z AUTO 36005KT 10SM FEW027 OVC046 24/18 A2992 RMK AO2 SLP118 T02440183

More Conditions Fewer Conditions

10-Day Weather Forecast

Almanac

Astronomy

Sep. 01, 2014 Rise Set
Actual Time 7:00 AM CDT 8:03 PM CDT
Civil Twilight 6:33 AM CDT 8:30 PM CDT
Nautical Twilight 6:00 AM CDT 9:03 PM CDT
Astronomical Twilight 5:26 AM CDT 9:37 PM CDT
Moon 1:46 PM CDT No Moon Set
Length of Visible Light 13h 57m
Length of Day
13h 02m
Tomorrow will be 2m 29s shorter.
Waxing Crescent, 43% of the Moon is Illuminated
Today
Waxing Crescent
Sep 2
First Quarter
Sep 8
Full
Sep 15
Last Quarter
Sep 24
New

Today's Extremes

State Highs State Lows

Community

WunderPhotos

Upload Photos

1,749,387 photos uploaded!

WunderBlogs® & News

Nearby

Snow Depth

Station Depth Elevation
No new snow has been reported.

Earthquake Activity

City Distance Mag. Time & Date
No recent earthquake activity has been reported nearby.
Minimum magnitude displayed is 2.5.

Coastal Water Temperatures

Place Temperature
No Stations Reporting

Nearby Weather Stations